SADF

Details ICAO SADF
Name San Fernando
Region Argentina
Timezone America/Argentina/Buenos_Aires (UTC-3.0)
Plans Departing 168
Arriving 67
Stats Elevation 10 ft / 3 m (AMSL)
Location -34.454000° -58.590200°
Runways 1
Magnetic Variation 9.059° W
Sunrise 2018-12-14 08:37:20 UTC / 2018-12-14 05:37:20 Local
Sunset 2018-12-14 23:03:28 UTC / 2018-12-14 20:03:28 Local
Advertisement - Login to hide

Runways

ID Width Length Bearing (true/mag) Surface Threshold Overrun Markings Lighting
05 131 ft / 40 m 5,904 ft / 1,800 m 44.03° / 53.09° ASPHALT 0 ft / 0 m 0 ft / 0 m VISUAL EDGE THRESHOLD
23 131 ft / 40 m 5,904 ft / 1,800 m 224.02° / 233.08° ASPHALT 899 ft / 274 m 0 ft / 0 m APP EDGE THRESHOLD

Map

Weather


0- 5 10 15 20 25 30 35+ Temperature / °C

Clouds and Precipitation
Forecast for 2018-12-15 00:00 UTC. Updated 3 hours ago

Ground ~20,000 ft ~40,000 ft Winds

METAR

SADF 150000Z 23004KT CAVOK 21/17 Q1013

TAF

TAF SADF 142300Z 1500/1524 23010KT 9999 BKN015 TX27/1518Z TN20/1508Z BECMG 1513/1516 02015KT

Frequencies

Tower 119.00 MHz San Fernando TWR AUX
Tower 120.70 MHz San Fernando TWR
Ground 121.65 MHz San Fernando GND
Warning: Do not use this data for real-world aviation or navigation. No guarantee of current accuracy is given.